Flight Track Log - Related Links

Times and Time Zones

All times are in EDT time to prevent confusion due to time zone crossing. See the AMF288 flight status page for this flight to view local times or setup timezone preferences in your user account.

Time Position Orientation Groundspeed Altitude Reporting Facility
EDT Latitude Longitude Course Direction KTS MPH feet Rate Location/Type
Tue 08:09:42 AM 45.6119 -122.6647 301° West 159 183 2,400  Level Seattle Center
Tue 08:10:43 AM 45.6356 -122.7292 298° West 192 221 4,400 2,083 Climbing Seattle Center
Tue 08:11:43 AM 45.6839 -122.7433 348° North 216 249 6,600 1,736 Climbing Seattle Center
Tue 08:12:44 AM 45.7442 -122.7189 16° North 231 266 7,900 744 Climbing Seattle Center
Tue 08:13:44 AM 45.8172 -122.6953 13° North 276 318 8,100 99 Climbing Seattle Center
Tue 08:14:45 AM 45.8950 -122.6728 11° North 299 344 8,100 295 Level Seattle Center
Tue 08:15:46 AM 45.9808 -122.6467 12° North 292 336 8,700 816 Climbing Seattle Center
Tue 08:17:12 AM 46.0658 -122.6847 343° North 261 300 10,100 1,068 Climbing Seattle Center
Tue 08:18:12 AM 46.1353 -122.7108 345° North 260 299 11,300 1,000 Climbing Seattle Center
Tue 08:19:12 AM 46.2089 -122.7203 355° North 261 300 12,100 397 Climbing Seattle Center
Tue 08:20:13 AM 46.3025 -122.7272 357° North 282 325 12,100  Level Seattle Center
Tue 08:21:13 AM 46.3833 -122.7411 353° North 292 336 12,100  Level Seattle Center
Tue 08:22:13 AM 46.4650 -122.7533 354° North 297 342 12,100  Level Seattle Center
Tue 08:23:14 AM 46.5481 -122.7594 357° North 301 346 12,100  Level Seattle Center
Tue 08:24:00 AM 46.6108 -122.7733 351° North 291 335 12,100  Level Seattle Center
Tue 08:25:07 AM 46.6942 -122.7869 354° North 279 321 12,100  Level Seattle Center
Tue 08:26:07 AM 46.7675 -122.8219 342° North 280 322 12,100 -496 Level Seattle Center
Tue 08:27:08 AM 46.8461 -122.8706 337° Northwest 285 328 11,100 -945 Descending Seattle Center
Tue 08:28:14 AM 46.9322 -122.8958 349° North 303 349 10,100 -606 Descending Seattle Center
Tue 08:28:57 AM 46.9856 -122.8867 North 287 330 10,000  Descending Seattle Center
Tue 08:30:10 AM 47.0539 -122.7883 44° Northeast 275 316 10,100 52 Climbing Seattle Center
Tue 08:30:52 AM 47.0978 -122.7422 36° Northeast 276 318 10,100  Level Seattle Center
Tue 08:32:05 AM 47.1767 -122.6672 33° Northeast 278 320 10,100  Level Seattle Center
Tue 08:33:06 AM 47.2403 -122.6033 34° Northeast 280 322 10,100  Level Seattle Center
Tue 08:34:06 AM 47.2958 -122.5242 44° Northeast 279 321 10,100  Level Seattle Center
Tue 08:35:07 AM 47.3572 -122.4678 32° Northeast 278 320 10,100  Level Seattle Center
Tue 08:36:01 AM 47.4286 -122.4778 355° North 277 319 10,100 -887 Level Seattle Center
Tue 08:37:02 AM 47.5086 -122.4864 356° North 291 335 8,400 -1,770 Descending Seattle Center
Tue 08:38:03 AM 47.5781 -122.5336 335° Northwest 276 318 6,500 -1,795 Descending Seattle Center
Tue 08:39:09 AM 47.6489 -122.6031 327° Northwest 263 303 4,600 -1,488 Descending Seattle Center
Tue 08:40:04 AM 47.6958 -122.6136 351° North 204 235 3,500 -1,086 Descending Seattle Center
Tue 08:41:05 AM 47.7278 -122.5369 58° Northeast 195 224 2,500 -626 Descending Seattle Center
Tue 08:41:59 AM 47.7222 -122.4708 97° East 190 219 2,300 -104 Descending Seattle Center
Tue 08:43:00 AM 47.6858 -122.4317 144° Southeast 161 185 2,300 -50 Level Seattle Center
Tue 08:44:00 AM 47.6417 -122.3969 152° Southeast 174 200 2,200 -496 Descending Seattle Center
Tue 08:45:01 AM 47.6019 -122.3628 150° Southeast 167 192 1,300 -738 Descending Seattle Center
Tue 08:46:02 AM 47.5683 -122.3353 151° Southeast 136 157 700 -518 Descending Seattle Center
Tue 08:47:20 AM 47.5317 -122.3050 151° Southeast 131 151 100 -462 Descending Seattle Center

Login

Don't have an account? Register now (free) for customized features, flight alerts, and more!